createdAt,value
2022-10-30T00:01:21.820Z,42.79
2022-10-30T00:03:51.068Z,42.61
2022-10-30T00:06:18.948Z,42.80
2022-10-30T00:08:46.768Z,42.88
2022-10-30T00:11:15.156Z,42.35
2022-10-30T00:13:44.790Z,42.94
2022-10-30T00:16:12.751Z,42.96
2022-10-30T00:18:42.146Z,43.15
2022-10-30T00:21:13.081Z,42.87
2022-10-30T00:23:40.990Z,43.42
2022-10-30T00:26:08.994Z,42.98
2022-10-30T00:28:36.985Z,43.46
2022-10-30T00:31:06.163Z,43.76
2022-10-30T00:33:34.077Z,43.53
2022-10-30T00:36:02.131Z,43.32
2022-10-30T00:38:31.402Z,43.61
2022-10-30T00:40:59.214Z,43.75
2022-10-30T00:43:32.532Z,43.46
2022-10-30T00:46:03.119Z,43.04
2022-10-30T00:48:31.050Z,42.60
2022-10-30T00:50:59.544Z,42.49
2022-10-30T00:53:27.895Z,43.21
2022-10-30T00:55:59.191Z,42.85
2022-10-30T00:58:30.430Z,43.06
2022-10-30T01:00:59.369Z,42.07
2022-10-30T01:03:28.499Z,42.16
2022-10-30T01:05:58.734Z,42.28
2022-10-30T01:08:26.673Z,42.05
2022-10-30T01:10:55.095Z,42.57
2022-10-30T01:13:24.907Z,42.80
2022-10-30T01:16:03.612Z,42.73
2022-10-30T01:18:37.156Z,42.49
2022-10-30T01:21:25.046Z,42.49
2022-10-30T01:24:01.676Z,42.61
2022-10-30T01:26:38.910Z,42.50
2022-10-30T01:29:28.334Z,42.64
2022-10-30T01:32:09.213Z,43.06
2022-10-30T01:34:44.165Z,43.52
2022-10-30T01:37:16.672Z,43.71
2022-10-30T01:39:45.409Z,43.54
2022-10-30T01:42:47.562Z,43.84
2022-10-30T01:45:28.362Z,43.85
2022-10-30T01:48:13.641Z,44.14
2022-10-30T01:50:52.898Z,44.49
2022-10-30T01:53:31.156Z,44.18
2022-10-30T01:56:09.729Z,44.74
2022-10-30T01:58:44.406Z,44.47
2022-10-30T02:01:14.367Z,44.31
2022-10-30T02:03:42.993Z,44.46
2022-10-30T02:06:11.011Z,44.34
2022-10-30T02:08:38.835Z,44.75
2022-10-30T02:11:06.922Z,45.27
2022-10-30T02:13:41.762Z,45.57
2022-10-30T02:16:09.894Z,45.63
2022-10-30T02:18:40.267Z,46.05
2022-10-30T02:21:09.624Z,46.22
2022-10-30T02:23:39.253Z,46.16
2022-10-30T02:26:07.675Z,46.39
2022-10-30T02:28:35.554Z,46.24
2022-10-30T02:31:03.422Z,46.45
2022-10-30T02:33:31.254Z,46.29
2022-10-30T02:35:59.135Z,46.88
2022-10-30T02:38:28.536Z,46.51
2022-10-30T02:40:58.762Z,47.00
2022-10-30T02:43:26.593Z,47.03
2022-10-30T02:45:55.431Z,47.32
2022-10-30T02:48:23.327Z,47.57
2022-10-30T02:50:51.187Z,47.47
2022-10-30T02:53:19.471Z,47.81
2022-10-30T02:55:49.279Z,47.32
2022-10-30T02:58:17.121Z,47.36
2022-10-30T03:00:45.177Z,47.08
2022-10-30T03:03:13.105Z,47.26
2022-10-30T03:05:41.806Z,47.51
2022-10-30T03:08:09.748Z,48.33
2022-10-30T03:10:37.583Z,48.28
2022-10-30T03:13:06.798Z,48.51
2022-10-30T03:15:34.663Z,48.55
2022-10-30T03:18:02.553Z,48.06
2022-10-30T03:20:30.382Z,48.20
2022-10-30T03:22:58.256Z,48.22
2022-10-30T03:25:26.130Z,48.96
2022-10-30T03:27:57.326Z,48.33
2022-10-30T03:30:26.852Z,48.86
2022-10-30T03:32:54.968Z,49.37
2022-10-30T03:35:23.005Z,49.26
2022-10-30T03:37:50.879Z,49.51
2022-10-30T03:40:20.287Z,49.92
2022-10-30T03:42:48.156Z,49.53
2022-10-30T03:45:16.231Z,49.72
2022-10-30T03:47:45.791Z,49.60
2022-10-30T03:50:13.599Z,49.88
2022-10-30T03:52:41.746Z,49.30
2022-10-30T03:55:10.366Z,49.95
2022-10-30T03:57:41.184Z,50.23
2022-10-30T04:00:17.149Z,50.32
2022-10-30T04:02:57.369Z,50.91
2022-10-30T04:05:27.125Z,50.72
2022-10-30T04:07:57.416Z,50.70
2022-10-30T04:10:26.225Z,51.11
2022-10-30T04:13:01.309Z,51.47
2022-10-30T04:15:29.589Z,51.18
2022-10-30T04:17:59.588Z,51.43
2022-10-30T04:20:28.623Z,51.34
2022-10-30T04:22:57.772Z,51.52
2022-10-30T04:25:26.395Z,51.53
2022-10-30T04:27:54.495Z,51.52
2022-10-30T04:30:25.049Z,51.72
2022-10-30T04:32:54.596Z,51.86
2022-10-30T04:35:25.884Z,52.35
2022-10-30T04:37:54.816Z,52.44
2022-10-30T04:40:22.690Z,52.83
2022-10-30T04:42:56.473Z,52.76
2022-10-30T04:45:24.726Z,53.36
2022-10-30T04:47:53.217Z,53.50
2022-10-30T04:50:21.135Z,53.74
2022-10-30T04:52:59.941Z,53.86
2022-10-30T04:55:28.364Z,53.90
2022-10-30T04:57:57.735Z,53.75
2022-10-30T05:00:26.360Z,53.91
2022-10-30T05:03:00.321Z,54.55
2022-10-30T05:05:28.451Z,54.78
2022-10-30T05:07:58.472Z,54.68
2022-10-30T05:10:26.698Z,54.99
2022-10-30T05:12:54.821Z,54.97
2022-10-30T05:15:23.241Z,55.48
2022-10-30T05:17:52.916Z,55.85
2022-10-30T05:20:21.261Z,56.34
2022-10-30T05:22:55.494Z,56.51
2022-10-30T05:25:25.002Z,56.82
2022-10-30T05:27:59.692Z,57.17
2022-10-30T05:30:28.455Z,56.88
2022-10-30T05:32:59.872Z,57.28
2022-10-30T05:35:28.754Z,57.59
2022-10-30T05:37:56.828Z,57.86
2022-10-30T05:40:26.139Z,57.71
2022-10-30T05:42:54.106Z,58.38
2022-10-30T05:45:22.412Z,58.87
2022-10-30T05:47:56.197Z,58.19
2022-10-30T05:50:24.500Z,58.54
2022-10-30T05:53:12.268Z,58.68
2022-10-30T05:55:42.346Z,59.38
2022-10-30T05:58:14.016Z,59.38
2022-10-30T06:00:44.390Z,59.60
2022-10-30T06:03:15.862Z,59.64
2022-10-30T06:05:46.494Z,60.17
2022-10-30T06:08:16.701Z,60.33
2022-10-30T06:10:47.446Z,60.47
2022-10-30T06:13:22.195Z,60.19
2022-10-30T06:16:16.217Z,60.35
2022-10-30T06:19:15.530Z,60.94
2022-10-30T06:21:46.600Z,61.52
2022-10-30T06:24:18.006Z,61.44
2022-10-30T06:27:08.742Z,61.37
2022-10-30T06:29:36.661Z,61.56
2022-10-30T06:32:06.743Z,61.65
2022-10-30T06:34:35.202Z,61.76
2022-10-30T06:37:03.339Z,61.99
2022-10-30T06:39:31.428Z,62.01
2022-10-30T06:42:31.681Z,61.86
2022-10-30T06:45:11.901Z,61.82
2022-10-30T06:47:40.159Z,61.47
2022-10-30T06:50:11.664Z,61.26
2022-10-30T06:52:39.561Z,61.69
2022-10-30T06:55:08.344Z,62.42
2022-10-30T06:58:12.646Z,62.67
2022-10-30T07:01:13.077Z,63.03
2022-10-30T07:04:19.537Z,61.92
2022-10-30T07:06:47.473Z,61.48
2022-10-30T07:09:15.365Z,61.57
2022-10-30T07:11:45.844Z,61.06
2022-10-30T07:14:22.579Z,60.89
2022-10-30T07:16:56.048Z,60.08
2022-10-30T07:19:24.623Z,59.68
2022-10-30T07:21:54.254Z,58.77
2022-10-30T07:24:22.177Z,58.24
2022-10-30T07:27:08.948Z,58.25
2022-10-30T07:29:43.092Z,57.81
2022-10-30T07:32:20.477Z,56.65
2022-10-30T07:34:53.746Z,56.60
2022-10-30T07:37:53.780Z,56.04
2022-10-30T07:40:24.209Z,55.51
2022-10-30T07:42:59.923Z,54.65
2022-10-30T07:45:48.312Z,54.17
2022-10-30T07:48:16.171Z,54.54
2022-10-30T07:50:47.239Z,54.28
2022-10-30T07:53:15.712Z,53.93
2022-10-30T07:55:43.880Z,54.42
2022-10-30T07:58:14.709Z,53.83
2022-10-30T08:01:03.500Z,52.86
2022-10-30T08:03:33.971Z,53.62
2022-10-30T08:08:43.172Z,52.04
2022-10-30T08:11:20.345Z,51.95
2022-10-30T08:13:48.342Z,51.27
2022-10-30T08:16:18.538Z,50.59
2022-10-30T08:18:46.513Z,50.15
2022-10-30T08:21:14.707Z,50.05
2022-10-30T08:23:55.826Z,50.16
2022-10-30T08:26:25.452Z,50.87
2022-10-30T08:28:53.924Z,51.07
2022-10-30T08:31:23.190Z,50.05
2022-10-30T08:34:11.476Z,50.59
2022-10-30T08:36:53.075Z,50.88
2022-10-30T08:39:21.098Z,49.96
2022-10-30T08:42:09.681Z,49.35
2022-10-30T08:44:43.373Z,48.93
2022-10-30T08:47:18.753Z,49.69
2022-10-30T08:49:47.335Z,48.40
2022-10-30T08:52:18.301Z,47.92
2022-10-30T08:54:50.980Z,46.05
2022-10-30T08:57:18.899Z,45.65
2022-10-30T08:59:46.810Z,46.98
2022-10-30T09:02:36.916Z,46.88
2022-10-30T09:05:23.643Z,46.13
2022-10-30T09:08:11.841Z,46.27
2022-10-30T09:11:00.365Z,46.04
2022-10-30T09:13:29.794Z,45.84
2022-10-30T09:16:01.213Z,46.68
2022-10-30T09:18:32.242Z,47.07
2022-10-30T09:21:03.225Z,46.35
2022-10-30T09:23:36.194Z,46.99
2022-10-30T09:26:30.545Z,46.60
2022-10-30T09:29:08.529Z,46.86
2022-10-30T09:31:54.795Z,47.32
2022-10-30T09:37:19.100Z,46.68
2022-10-30T09:39:50.540Z,46.92
2022-10-30T09:42:38.901Z,47.31
2022-10-30T09:45:29.681Z,46.76
2022-10-30T09:48:08.902Z,45.98
2022-10-30T09:51:05.308Z,45.36
2022-10-30T09:53:39.829Z,45.21
2022-10-30T09:56:19.450Z,44.27
2022-10-30T09:58:55.188Z,42.79
2022-10-30T10:01:29.079Z,42.63
2022-10-30T10:04:07.091Z,41.91
2022-10-30T10:06:46.156Z,41.71
2022-10-30T10:09:28.203Z,41.12
2022-10-30T10:12:23.497Z,40.18
2022-10-30T10:14:51.432Z,40.09
2022-10-30T10:17:24.628Z,39.25
2022-10-30T10:19:56.869Z,39.05
2022-10-30T10:22:28.013Z,38.46
2022-10-30T10:24:56.209Z,38.29
2022-10-30T10:27:41.233Z,38.95
2022-10-30T10:30:12.588Z,39.27
2022-10-30T10:32:53.263Z,39.32
2022-10-30T10:35:32.193Z,38.70
2022-10-30T10:38:05.305Z,36.84
2022-10-30T10:40:42.013Z,34.82
2022-10-30T10:43:19.496Z,35.24
2022-10-30T10:45:54.773Z,34.42
2022-10-30T10:48:36.322Z,32.46
2022-10-30T10:51:05.865Z,32.02
2022-10-30T10:53:41.540Z,33.58
2022-10-30T10:56:10.122Z,34.38
2022-10-30T10:58:43.593Z,35.51
2022-10-30T11:01:15.381Z,35.27
2022-10-30T11:03:50.819Z,34.46
2022-10-30T11:06:23.352Z,34.53
2022-10-30T11:08:53.914Z,34.50
2022-10-30T11:11:21.781Z,34.47
2022-10-30T11:13:50.529Z,34.71
2022-10-30T11:16:25.468Z,33.99
2022-10-30T11:18:58.163Z,33.09
2022-10-30T11:21:27.266Z,32.69
2022-10-30T11:23:56.531Z,30.96
2022-10-30T11:26:34.274Z,30.80
2022-10-30T11:29:14.220Z,30.57
2022-10-30T11:31:43.002Z,30.20
2022-10-30T11:34:25.930Z,31.48
2022-10-30T11:36:54.829Z,31.27
2022-10-30T11:39:25.537Z,31.23
2022-10-30T11:41:58.223Z,32.38
2022-10-30T11:44:29.584Z,32.68
2022-10-30T11:46:57.776Z,32.31
2022-10-30T11:49:33.629Z,31.86
2022-10-30T11:52:01.925Z,32.27
2022-10-30T11:54:31.165Z,32.46
2022-10-30T11:56:59.919Z,32.87
2022-10-30T11:59:27.738Z,33.16
2022-10-30T12:02:00.364Z,31.71
2022-10-30T12:04:31.918Z,31.88
2022-10-30T12:07:10.682Z,32.06
2022-10-30T12:09:44.922Z,31.08
2022-10-30T12:12:13.729Z,31.33
2022-10-30T12:14:41.614Z,30.88
2022-10-30T12:17:09.492Z,30.66
2022-10-30T12:19:37.302Z,30.76
2022-10-30T12:22:08.966Z,29.36
2022-10-30T12:24:39.460Z,29.63
2022-10-30T12:27:18.106Z,29.22
2022-10-30T12:30:09.564Z,30.41
2022-10-30T12:32:43.899Z,29.51
2022-10-30T12:35:19.793Z,28.38
2022-10-30T12:37:48.684Z,26.80
2022-10-30T12:40:18.801Z,26.47
2022-10-30T12:42:53.949Z,27.14
2022-10-30T12:45:25.909Z,26.17
2022-10-30T12:47:58.689Z,27.24
2022-10-30T12:50:28.643Z,27.05
2022-10-30T12:53:00.952Z,27.71
2022-10-30T12:55:33.226Z,28.39
2022-10-30T12:58:09.013Z,28.70
2022-10-30T13:00:41.932Z,28.93
2022-10-30T13:03:22.342Z,29.29
2022-10-30T13:05:52.763Z,29.36
2022-10-30T13:08:27.101Z,29.50
2022-10-30T13:10:56.594Z,29.65
2022-10-30T13:13:28.979Z,29.52
2022-10-30T13:15:58.970Z,29.59
2022-10-30T13:18:28.056Z,29.97
2022-10-30T13:21:20.333Z,29.81
2022-10-30T13:23:52.773Z,30.37
2022-10-30T13:26:27.961Z,31.02
2022-10-30T13:29:03.038Z,31.02
2022-10-30T13:31:36.812Z,31.47
2022-10-30T13:34:08.106Z,32.34
2022-10-30T13:36:40.726Z,32.44
2022-10-30T13:39:17.966Z,32.46
2022-10-30T13:41:58.229Z,32.91
2022-10-30T13:44:33.869Z,33.00
2022-10-30T13:47:08.124Z,33.45
2022-10-30T13:49:51.166Z,33.85
2022-10-30T13:52:22.283Z,34.12
2022-10-30T13:54:56.742Z,34.70
2022-10-30T13:57:28.959Z,34.56
2022-10-30T14:00:03.447Z,33.75
2022-10-30T14:02:52.019Z,33.26
2022-10-30T14:05:29.173Z,33.35
2022-10-30T14:08:06.368Z,33.41
2022-10-30T14:10:45.181Z,33.75
2022-10-30T14:13:27.823Z,34.04
2022-10-30T14:16:03.710Z,34.60
2022-10-30T14:18:35.676Z,35.51
2022-10-30T14:21:31.190Z,34.94
2022-10-30T14:24:10.189Z,34.72
2022-10-30T14:26:38.167Z,35.35
2022-10-30T14:29:38.713Z,33.71
2022-10-30T14:32:38.457Z,34.01
2022-10-30T14:35:38.661Z,34.06
2022-10-30T14:38:27.516Z,33.94
2022-10-30T14:41:20.647Z,34.55
2022-10-30T14:44:05.210Z,34.81
2022-10-30T14:46:36.982Z,35.10
2022-10-30T14:49:17.544Z,34.56
2022-10-30T14:51:52.322Z,34.57
2022-10-30T14:54:24.234Z,34.27
2022-10-30T14:56:54.359Z,34.55
2022-10-30T14:59:33.397Z,35.16
2022-10-30T15:02:24.250Z,35.13
2022-10-30T15:05:08.595Z,35.57
2022-10-30T15:07:42.467Z,35.24
2022-10-30T15:10:13.621Z,35.61
2022-10-30T15:12:59.774Z,36.02
2022-10-30T15:15:30.371Z,36.62
2022-10-30T15:18:00.013Z,36.67
2022-10-30T15:20:32.207Z,37.20
2022-10-30T15:23:03.877Z,37.15
2022-10-30T15:25:35.437Z,38.08
2022-10-30T15:28:03.723Z,38.65
2022-10-30T15:30:31.661Z,39.45
2022-10-30T15:32:59.810Z,41.09
2022-10-30T15:35:30.128Z,42.07
2022-10-30T15:38:06.225Z,42.11
2022-10-30T15:40:35.311Z,42.52
2022-10-30T15:43:05.222Z,42.45
2022-10-30T15:45:35.432Z,43.62
2022-10-30T15:48:07.651Z,43.21
2022-10-30T15:50:39.137Z,44.12
2022-10-30T15:53:07.096Z,44.79
2022-10-30T15:55:35.009Z,44.74
2022-10-30T15:58:05.298Z,44.42
2022-10-30T16:00:36.135Z,44.63
2022-10-30T16:03:06.491Z,44.15
2022-10-30T16:05:34.450Z,44.11
2022-10-30T16:08:04.086Z,43.84
2022-10-30T16:10:34.281Z,43.32
2022-10-30T16:13:02.884Z,43.02
2022-10-30T16:15:32.779Z,43.67
2022-10-30T16:18:18.288Z,43.90
2022-10-30T16:20:48.553Z,45.17
2022-10-30T16:23:18.663Z,45.18
2022-10-30T16:25:47.545Z,45.77
2022-10-30T16:28:27.145Z,46.18
2022-10-30T16:30:55.455Z,46.27
2022-10-30T16:33:25.256Z,46.44
2022-10-30T16:35:55.740Z,45.45
2022-10-30T16:38:28.904Z,45.38
2022-10-30T16:40:56.944Z,45.31
2022-10-30T16:43:29.930Z,45.38
2022-10-30T16:45:58.795Z,45.04
2022-10-30T16:48:30.042Z,45.07
2022-10-30T16:51:02.381Z,45.25
2022-10-30T16:53:31.851Z,45.19
2022-10-30T16:56:00.236Z,45.64
2022-10-30T16:58:30.375Z,45.67
2022-10-30T17:01:04.278Z,44.76
2022-10-30T17:03:35.254Z,44.48
2022-10-30T17:06:06.066Z,44.49
2022-10-30T17:08:42.157Z,44.82
2022-10-30T17:11:19.200Z,45.31
2022-10-30T17:14:02.163Z,45.17
2022-10-30T17:16:30.342Z,45.96
2022-10-30T17:18:59.126Z,45.56
2022-10-30T17:21:29.117Z,45.79
2022-10-30T17:23:58.789Z,45.58
2022-10-30T17:26:27.607Z,45.58
2022-10-30T17:28:55.715Z,45.65
2022-10-30T17:31:31.308Z,45.46
2022-10-30T17:34:15.340Z,45.86
2022-10-30T17:36:43.603Z,45.98
2022-10-30T17:39:12.745Z,46.19
2022-10-30T17:41:40.457Z,45.95
2022-10-30T17:44:16.092Z,46.07
2022-10-30T17:46:43.998Z,46.10
2022-10-30T17:49:13.694Z,46.87
2022-10-30T17:51:41.360Z,46.13
2022-10-30T17:54:10.135Z,46.18
2022-10-30T17:56:39.110Z,46.03
2022-10-30T17:59:07.792Z,46.48
2022-10-30T18:01:35.510Z,46.50
2022-10-30T18:04:03.277Z,46.41
2022-10-30T18:06:30.940Z,46.72
2022-10-30T18:08:58.550Z,47.62
2022-10-30T18:11:27.105Z,47.15
2022-10-30T18:13:56.674Z,47.75
2022-10-30T18:16:24.369Z,47.79
2022-10-30T18:18:53.400Z,48.41
2022-10-30T18:21:21.897Z,48.56
2022-10-30T18:23:53.627Z,48.29
2022-10-30T18:26:21.965Z,48.77
2022-10-30T18:28:49.742Z,48.32
2022-10-30T18:31:19.455Z,48.14
2022-10-30T18:33:47.175Z,47.79
2022-10-30T18:36:15.529Z,47.81
2022-10-30T18:38:43.283Z,47.69
2022-10-30T18:41:11.606Z,48.09
2022-10-30T18:43:43.702Z,47.99
2022-10-30T18:46:14.478Z,48.50
2022-10-30T18:48:43.859Z,48.66
2022-10-30T18:51:12.276Z,48.97
2022-10-30T18:53:39.922Z,48.77
2022-10-30T18:56:10.160Z,48.80
2022-10-30T18:58:37.963Z,50.18
2022-10-30T19:01:12.096Z,50.16
2022-10-30T19:03:40.385Z,50.14
2022-10-30T19:06:12.170Z,49.92
2022-10-30T19:08:39.852Z,50.43
2022-10-30T19:11:07.578Z,50.69
2022-10-30T19:13:35.363Z,50.27
2022-10-30T19:16:03.110Z,50.44
2022-10-30T19:18:32.715Z,49.63
2022-10-30T19:21:05.830Z,49.47
2022-10-30T19:23:37.209Z,49.59
2022-10-30T19:26:05.015Z,49.57
2022-10-30T19:28:32.809Z,50.12
2022-10-30T19:31:00.757Z,50.31
2022-10-30T19:33:28.410Z,50.80
2022-10-30T19:35:56.582Z,50.96
2022-10-30T19:38:24.400Z,50.95
2022-10-30T19:40:53.603Z,51.41
2022-10-30T19:43:21.338Z,50.66
2022-10-30T19:45:51.363Z,51.46
2022-10-30T19:48:40.633Z,50.54
2022-10-30T19:51:11.577Z,51.06
2022-10-30T19:53:39.418Z,51.32
2022-10-30T19:56:10.108Z,51.46
2022-10-30T19:58:37.946Z,52.04
2022-10-30T20:01:05.708Z,52.17
2022-10-30T20:03:33.479Z,52.69
2022-10-30T20:06:01.200Z,52.99
2022-10-30T20:08:29.050Z,52.68
2022-10-30T20:10:57.531Z,52.48
2022-10-30T20:13:27.107Z,52.98
2022-10-30T20:15:55.211Z,52.39
2022-10-30T20:18:23.938Z,51.73
2022-10-30T20:20:51.970Z,51.42
2022-10-30T20:23:20.171Z,51.68
2022-10-30T20:25:48.181Z,51.93
2022-10-30T20:28:20.194Z,52.21
2022-10-30T20:30:49.325Z,52.38
2022-10-30T20:33:17.050Z,52.37
2022-10-30T20:35:44.674Z,52.32
2022-10-30T20:38:16.047Z,52.54
2022-10-30T20:40:43.713Z,52.25
2022-10-30T20:43:11.561Z,52.84
2022-10-30T20:45:39.255Z,53.32
2022-10-30T20:48:08.795Z,53.17
2022-10-30T20:50:36.736Z,53.59
2022-10-30T20:53:04.492Z,53.17
2022-10-30T20:55:33.460Z,53.18
2022-10-30T20:58:01.641Z,53.23
2022-10-30T21:00:29.835Z,53.75
2022-10-30T21:02:57.707Z,54.08
2022-10-30T21:05:44.417Z,54.44
2022-10-30T21:08:13.570Z,54.56
2022-10-30T21:10:41.786Z,54.52
2022-10-30T21:13:10.909Z,55.38
2022-10-30T21:15:40.114Z,55.36
2022-10-30T21:18:08.029Z,55.55
2022-10-30T21:20:37.839Z,55.49
2022-10-30T21:23:06.145Z,55.60
2022-10-30T21:25:34.299Z,55.89
2022-10-30T21:28:02.324Z,55.72
2022-10-30T21:30:30.148Z,56.10
2022-10-30T21:32:59.574Z,56.26
2022-10-30T21:35:27.803Z,56.41
2022-10-30T21:37:56.910Z,56.76
2022-10-30T21:40:24.729Z,57.52
2022-10-30T21:42:52.645Z,57.87
2022-10-30T21:45:20.379Z,58.48
2022-10-30T21:47:48.092Z,58.81
2022-10-30T21:50:15.932Z,58.33
2022-10-30T21:52:43.685Z,58.39
2022-10-30T21:55:12.824Z,58.51
2022-10-30T21:57:40.562Z,58.72
2022-10-30T22:00:09.528Z,58.74
2022-10-30T22:02:37.267Z,58.75
2022-10-30T22:05:05.378Z,58.84
2022-10-30T22:07:33.134Z,58.93
2022-10-30T22:10:00.937Z,59.10
2022-10-30T22:12:30.062Z,59.28
2022-10-30T22:14:57.865Z,59.24
2022-10-30T22:17:28.243Z,59.15
2022-10-30T22:19:57.247Z,59.38
2022-10-30T22:22:25.055Z,59.92
2022-10-30T22:24:52.761Z,60.46
2022-10-30T22:27:20.725Z,60.48
2022-10-30T22:29:49.816Z,60.59
2022-10-30T22:32:17.556Z,60.62
2022-10-30T22:34:45.308Z,61.74
2022-10-30T22:37:13.128Z,61.17
2022-10-30T22:39:40.831Z,60.83
2022-10-30T22:42:08.523Z,60.94
2022-10-30T22:44:36.338Z,61.19
2022-10-30T22:47:05.522Z,61.59
2022-10-30T22:49:33.412Z,61.69
2022-10-30T22:52:01.150Z,61.55
2022-10-30T22:54:28.886Z,61.45
2022-10-30T22:56:56.884Z,61.40
2022-10-30T22:59:24.733Z,61.09
2022-10-30T23:01:52.576Z,61.20
2022-10-30T23:04:21.826Z,61.60
2022-10-30T23:06:49.554Z,61.14
2022-10-30T23:09:21.304Z,61.25
2022-10-30T23:11:49.320Z,61.18
2022-10-30T23:14:18.855Z,61.39
2022-10-30T23:16:46.633Z,61.63
2022-10-30T23:19:14.382Z,61.74
2022-10-30T23:21:43.461Z,61.38
2022-10-30T23:24:11.374Z,61.40
2022-10-30T23:26:39.094Z,61.10
2022-10-30T23:29:06.807Z,61.25
2022-10-30T23:31:36.769Z,61.27
2022-10-30T23:34:07.269Z,61.44
2022-10-30T23:36:35.146Z,61.65
2022-10-30T23:39:06.636Z,62.00
2022-10-30T23:41:34.957Z,62.11
2022-10-30T23:44:05.050Z,61.91
2022-10-30T23:46:32.975Z,61.82
2022-10-30T23:49:00.810Z,61.21
2022-10-30T23:51:28.588Z,61.40
2022-10-30T23:53:56.397Z,61.67
2022-10-30T23:56:25.873Z,61.10
2022-10-30T23:58:54.016Z,61.20
